Time;durP1;ratioP1;P1;durP2;ratioP2;P2;SDS_P1;SDS_P2;PMS_P1;PMS_P2;Temp;Humidity;BMP_temperature;BMP_pressure;BME280_temperature;BME280_humidity;BME280_pressure;Samples;Min_cycle;Max_cycle;Signal;HPM_P1;HPM_P2
2021/03/18 00:01:12;;;;;;;4.70;2.85;;;4.30;74.70;;;;;;5114787;28;20043;-37
2021/03/18 00:03:40;;;;;;;10.23;3.35;;;4.30;75.10;;;;;;5113585;28;20024;-36
2021/03/18 00:06:06;;;;;;;4.78;2.65;;;4.20;75.40;;;;;;5115095;28;20099;-37
2021/03/18 00:08:33;;;;;;;8.75;2.90;;;4.20;75.30;;;;;;5113313;28;20379;-36
2021/03/18 00:11:01;;;;;;;4.43;2.97;;;4.20;75.50;;;;;;5115417;28;20019;-36
2021/03/18 00:13:31;;;;;;;13.40;3.53;;;4.20;75.60;;;;;;5113276;28;20024;-35
2021/03/18 00:15:58;;;;;;;9.95;3.28;;;4.10;75.60;;;;;;5114884;28;20034;-36
2021/03/18 00:18:34;;;;;;;9.02;2.70;;;4.10;75.90;;;;;;5115188;28;20580;-38
2021/03/18 00:21:01;;;;;;;7.35;3.53;;;4.10;75.80;;;;;;5113265;28;20493;-36
2021/03/18 00:23:30;;;;;;;8.52;3.30;;;3.90;76.40;;;;;;5114308;28;20068;-36
2021/03/18 00:25:56;;;;;;;12.85;3.47;;;3.80;76.90;;;;;;5112355;28;20379;-36
2021/03/18 00:28:22;;;;;;;4.30;2.75;;;3.80;77.20;;;;;;5114390;28;20024;-36
2021/03/18 00:30:48;;;;;;;6.55;2.75;;;3.80;77.70;;;;;;5116354;28;20071;-36
2021/03/18 00:33:14;;;;;;;10.80;3.42;;;3.60;78.10;;;;;;5114188;28;20063;-36
2021/03/18 00:35:42;;;;;;;10.85;3.33;;;3.50;78.70;;;;;;5118442;28;20122;-42
2021/03/18 00:38:08;;;;;;;4.57;2.38;;;3.40;78.80;;;;;;5120011;28;20030;-36
2021/03/18 00:40:55;;;;;;;11.60;4.30;;;3.40;78.90;;;;;;5117119;28;20040;-36
2021/03/18 00:43:21;;;;;;;5.40;3.17;;;3.40;79.20;;;;;;5116823;28;20023;-36
2021/03/18 00:45:48;;;;;;;15.70;4.28;;;3.30;79.90;;;;;;5116840;28;20379;-37
2021/03/18 00:48:16;;;;;;;13.40;2.75;;;3.20;79.90;;;;;;5114725;28;20079;-36
2021/03/18 00:50:56;;;;;;;5.32;2.80;;;3.20;80.50;;;;;;5115082;28;20104;-36
2021/03/18 00:53:34;;;;;;;14.93;3.08;;;3.00;80.90;;;;;;5116342;28;20094;-37
2021/03/18 00:56:01;;;;;;;8.95;3.20;;;3.10;81.00;;;;;;5117680;28;20019;-37
2021/03/18 00:58:28;;;;;;;9.88;4.10;;;3.30;80.00;;;;;;5116819;28;20027;-36
2021/03/18 01:00:57;;;;;;;5.30;3.10;;;3.50;79.00;;;;;;5116304;28;20088;-37
2021/03/18 01:03:25;;;;;;;8.55;3.05;;;3.70;78.50;;;;;;5115541;28;20044;-37
2021/03/18 01:06:15;;;;;;;11.32;3.42;;;3.70;78.40;;;;;;5114722;28;20100;-37
2021/03/18 01:08:42;;;;;;;17.60;3.13;;;3.50;78.70;;;;;;5108524;28;20055;-37
2021/03/18 01:11:15;;;;;;;12.98;3.67;;;3.40;79.40;;;;;;5114041;28;20051;-38
2021/03/18 01:13:43;;;;;;;13.35;3.40;;;3.30;79.80;;;;;;5113983;28;20019;-35
2021/03/18 01:16:21;;;;;;;12.02;3.55;;;3.50;79.10;;;;;;5114035;28;20077;-38
2021/03/18 01:18:56;;;;;;;16.58;5.15;;;3.50;79.20;;;;;;5113928;28;20055;-36
2021/03/18 01:21:25;;;;;;;9.63;2.88;;;3.50;79.30;;;;;;5114170;28;20030;-37
2021/03/18 01:23:50;;;;;;;11.98;4.05;;;3.50;79.30;;;;;;5113791;28;20020;-35
2021/03/18 01:26:17;;;;;;;9.75;3.63;;;3.50;79.20;;;;;;5113535;28;20032;-36
2021/03/18 01:28:43;;;;;;;11.35;4.80;;;3.40;79.70;;;;;;5113809;28;20023;-36
2021/03/18 01:31:11;;;;;;;9.38;4.00;;;3.30;79.90;;;;;;5113501;28;20015;-35
2021/03/18 01:33:39;;;;;;;9.40;3.20;;;3.40;79.70;;;;;;5112291;28;20356;-36
2021/03/18 01:36:07;;;;;;;15.27;4.75;;;3.30;80.10;;;;;;5112310;28;20023;-37
2021/03/18 01:38:34;;;;;;;9.18;3.78;;;3.30;80.30;;;;;;5116481;28;20020;-36
2021/03/18 01:41:00;;;;;;;16.55;5.75;;;3.30;79.90;;;;;;5116210;28;20134;-36
2021/03/18 01:43:26;;;;;;;12.25;4.07;;;3.20;80.50;;;;;;5117074;28;20039;-36
2021/03/18 01:45:52;;;;;;;13.90;3.70;;;3.20;80.60;;;;;;5117340;28;20039;-36
2021/03/18 01:48:18;;;;;;;9.95;3.97;;;3.00;81.20;;;;;;5117252;27;20396;-36
2021/03/18 01:50:44;;;;;;;9.50;4.20;;;2.80;81.90;;;;;;5117236;27;20036;-36
2021/03/18 01:53:11;;;;;;;8.50;4.82;;;3.20;81.40;;;;;;5117409;28;20463;-36
2021/03/18 01:55:39;;;;;;;16.73;5.05;;;3.30;80.20;;;;;;5115928;28;20364;-36
2021/03/18 01:58:06;;;;;;;14.95;4.82;;;3.30;80.20;;;;;;5117119;28;20483;-36
2021/03/18 02:00:34;;;;;;;10.57;4.32;;;3.00;81.20;;;;;;5117270;28;20107;-36
2021/03/18 02:03:00;;;;;;;9.27;3.75;;;2.90;82.00;;;;;;5116945;28;20030;-36
2021/03/18 02:05:27;;;;;;;10.85;3.58;;;2.90;81.70;;;;;;5117137;28;20054;-36
2021/03/18 02:07:54;;;;;;;8.40;4.03;;;2.90;82.00;;;;;;5116817;28;20020;-36
2021/03/18 02:10:28;;;;;;;15.02;4.05;;;2.80;82.50;;;;;;5116874;28;20026;-36
2021/03/18 02:12:54;;;;;;;14.18;5.40;;;3.10;81.60;;;;;;5117059;28;20024;-36
2021/03/18 02:15:24;;;;;;;9.15;4.18;;;3.10;81.30;;;;;;5116915;28;20102;-36
2021/03/18 02:18:00;;;;;;;8.43;4.13;;;3.00;81.70;;;;;;5116630;28;20023;-36
2021/03/18 02:20:56;;;;;;;7.45;3.80;;;3.00;81.60;;;;;;5116808;28;20024;-36
2021/03/18 02:23:44;;;;;;;9.18;4.25;;;2.80;82.50;;;;;;5116774;28;20027;-35
2021/03/18 02:26:37;;;;;;;7.38;4.50;;;2.60;82.80;;;;;;5116316;28;20051;-36
2021/03/18 02:29:42;;;;;;;14.45;4.30;;;2.40;83.80;;;;;;5116866;28;20024;-36
2021/03/18 02:32:17;;;;;;;9.68;5.15;;;2.20;84.80;;;;;;5116655;28;20041;-35
2021/03/18 02:35:01;;;;;;;14.95;5.25;;;2.20;85.20;;;;;;5116796;27;20426;-36
2021/03/18 02:37:30;;;;;;;11.75;4.82;;;2.30;84.70;;;;;;5116697;28;20102;-36
2021/03/18 02:40:03;;;;;;;7.93;4.43;;;2.20;85.10;;;;;;5116383;28;20027;-36
2021/03/18 02:42:33;;;;;;;7.30;4.13;;;2.10;85.40;;;;;;5116375;28;20028;-36
2021/03/18 02:45:01;;;;;;;12.38;5.72;;;2.10;85.50;;;;;;5116514;28;20479;-36
2021/03/18 02:47:30;;;;;;;10.65;5.18;;;2.10;85.20;;;;;;5116195;28;20054;-36
2021/03/18 02:49:57;;;;;;;10.18;4.40;;;2.20;85.20;;;;;;5115248;28;20095;-36
2021/03/18 02:52:29;;;;;;;12.95;5.10;;;2.20;84.50;;;;;;5116447;28;20039;-36
2021/03/18 02:54:57;;;;;;;13.48;5.40;;;2.10;85.40;;;;;;5114802;28;20448;-36
2021/03/18 02:57:26;;;;;;;9.35;4.75;;;2.00;85.30;;;;;;5116018;28;20016;-35
2021/03/18 02:59:53;;;;;;;13.15;4.53;;;1.80;85.80;;;;;;5116039;28;20106;-36
2021/03/18 03:02:22;;;;;;;9.20;4.45;;;1.80;86.20;;;;;;5116138;28;20463;-35
2021/03/18 03:04:49;;;;;;;10.88;5.47;;;1.80;85.60;;;;;;5115865;28;20027;-35
2021/03/18 03:07:17;;;;;;;14.52;4.63;;;1.90;85.90;;;;;;5115923;28;20521;-35
2021/03/18 03:09:45;;;;;;;10.48;5.82;;;2.00;85.70;;;;;;5115757;28;20083;-35
2021/03/18 03:12:11;;;;;;;15.45;4.90;;;2.00;85.30;;;;;;5116057;27;20375;-36
2021/03/18 03:14:40;;;;;;;11.35;6.05;;;2.10;85.00;;;;;;5115016;28;20030;-36
2021/03/18 03:17:06;;;;;;;13.95;5.10;;;1.90;85.30;;;;;;5115733;28;20024;-35
2021/03/18 03:19:37;;;;;;;10.02;5.25;;;1.90;85.50;;;;;;5115692;28;20023;-36
2021/03/18 03:22:05;;;;;;;8.43;4.60;;;1.90;85.70;;;;;;5114392;28;20068;-36
2021/03/18 03:24:35;;;;;;;14.35;4.95;;;1.80;85.80;;;;;;5115639;28;20065;-36
2021/03/18 03:27:01;;;;;;;11.30;5.10;;;1.90;85.80;;;;;;5115408;27;20023;-36
2021/03/18 03:29:29;;;;;;;14.68;5.65;;;1.80;85.90;;;;;;5115568;28;20467;-36
2021/03/18 03:31:55;;;;;;;12.07;5.13;;;1.80;86.00;;;;;;5115669;28;20073;-35
2021/03/18 03:34:21;;;;;;;13.02;4.85;;;1.80;86.10;;;;;;5115653;28;20023;-36
2021/03/18 03:36:48;;;;;;;14.05;4.88;;;1.60;86.10;;;;;;5115616;28;20119;-36
2021/03/18 03:39:14;;;;;;;15.43;5.70;;;1.50;86.80;;;;;;5115494;28;20054;-36
2021/03/18 03:41:40;;;;;;;14.52;6.18;;;1.40;87.00;;;;;;5114139;28;20031;-36
2021/03/18 03:44:06;;;;;;;13.90;5.18;;;1.50;87.00;;;;;;5115160;28;20396;-36
2021/03/18 03:46:34;;;;;;;20.42;5.75;;;1.50;86.90;;;;;;5115128;28;20023;-36
2021/03/18 03:49:01;;;;;;;17.83;5.65;;;1.60;87.10;;;;;;5114939;28;20032;-36
2021/03/18 03:51:44;;;;;;;14.40;6.18;;;1.50;87.20;;;;;;5115206;28;20024;-36
2021/03/18 03:54:11;;;;;;;15.85;5.88;;;1.50;86.90;;;;;;5115127;28;20074;-35
2021/03/18 03:56:57;;;;;;;9.32;4.82;;;1.50;86.80;;;;;;5115139;28;20030;-35
2021/03/18 03:59:25;;;;;;;10.70;5.28;;;1.40;87.10;;;;;;5115152;28;20074;-35
2021/03/18 04:01:54;;;;;;;13.70;5.90;;;1.40;87.10;;;;;;5114978;28;20023;-35
2021/03/18 04:04:22;;;;;;;6.85;5.00;;;1.40;86.90;;;;;;5114029;28;20584;-35
2021/03/18 04:06:54;;;;;;;8.05;5.03;;;1.50;86.50;;;;;;5113464;28;20024;-34
2021/03/18 04:09:23;;;;;;;14.05;7.05;;;1.30;86.90;;;;;;5113554;28;20034;-36
2021/03/18 04:11:49;;;;;;;10.13;5.38;;;1.30;86.80;;;;;;5113703;28;20023;-36
2021/03/18 04:14:18;;;;;;;8.18;5.55;;;1.20;87.40;;;;;;5114087;28;20016;-36
2021/03/18 04:16:45;;;;;;;11.98;6.38;;;1.00;87.80;;;;;;5114520;28;20550;-36
2021/03/18 04:19:15;;;;;;;15.98;6.90;;;1.00;88.30;;;;;;5114798;28;20081;-37
2021/03/18 04:21:43;;;;;;;11.75;7.10;;;0.90;88.00;;;;;;5114842;28;20031;-37
2021/03/18 04:24:10;;;;;;;16.08;7.53;;;1.10;87.60;;;;;;5113119;28;20144;-35
2021/03/18 04:26:39;;;;;;;17.63;6.47;;;1.10;87.50;;;;;;5114337;28;20067;-35
2021/03/18 04:29:06;;;;;;;29.83;10.55;;;1.20;87.10;;;;;;5114208;28;20053;-35
2021/03/18 04:31:35;;;;;;;17.20;7.13;;;1.10;87.20;;;;;;5114263;28;20019;-35
2021/03/18 04:34:02;;;;;;;16.95;8.32;;;1.20;86.90;;;;;;5114545;28;20103;-35
2021/03/18 04:36:29;;;;;;;17.58;7.25;;;1.00;87.10;;;;;;5112950;28;20063;-36
2021/03/18 04:38:57;;;;;;;15.68;8.43;;;1.20;86.80;;;;;;5114162;28;20043;-35
2021/03/18 04:41:23;;;;;;;16.08;7.53;;;1.00;87.00;;;;;;5114048;28;20035;-35
2021/03/18 04:43:49;;;;;;;13.40;7.40;;;1.10;87.00;;;;;;5114311;28;20024;-35
2021/03/18 04:46:15;;;;;;;10.65;7.47;;;0.90;87.60;;;;;;5114269;28;20028;-35
2021/03/18 04:48:43;;;;;;;19.30;7.88;;;0.90;88.10;;;;;;5113749;28;20056;-35
2021/03/18 04:51:10;;;;;;;14.60;7.13;;;0.80;88.30;;;;;;5113938;28;20535;-35
2021/03/18 04:53:37;;;;;;;12.48;7.15;;;0.80;88.00;;;;;;5113888;28;20027;-35
2021/03/18 04:56:08;;;;;;;16.13;7.32;;;0.90;88.40;;;;;;5113890;28;20011;-35
2021/03/18 04:58:36;;;;;;;12.27;7.88;;;0.80;87.80;;;;;;5114184;28;20027;-35
2021/03/18 05:01:04;;;;;;;17.17;8.40;;;0.80;88.10;;;;;;5114331;28;20036;-35
2021/03/18 05:03:31;;;;;;;24.15;8.80;;;0.80;88.20;;;;;;5113810;28;20019;-35
2021/03/18 05:05:59;;;;;;;17.52;7.55;;;0.80;88.50;;;;;;5113882;28;20023;-35
2021/03/18 05:08:25;;;;;;;20.02;8.57;;;0.80;87.90;;;;;;5114066;28;20062;-35
2021/03/18 05:10:52;;;;;;;17.33;7.60;;;0.80;88.00;;;;;;5113639;28;20027;-35
2021/03/18 05:13:18;;;;;;;16.90;7.22;;;0.80;88.00;;;;;;5113171;28;20035;-35
2021/03/18 05:15:45;;;;;;;15.00;7.70;;;0.80;88.10;;;;;;5112365;28;20035;-35
2021/03/18 05:18:13;;;;;;;13.82;8.95;;;0.80;88.30;;;;;;5113885;28;20031;-35
2021/03/18 05:20:40;;;;;;;16.33;9.10;;;0.60;88.60;;;;;;5114112;28;20080;-37
2021/03/18 05:23:08;;;;;;;14.02;8.48;;;0.80;88.50;;;;;;5113791;28;20039;-35
2021/03/18 05:25:34;;;;;;;16.08;8.00;;;0.60;88.40;;;;;;5114008;28;20016;-35
2021/03/18 05:28:01;;;;;;;13.82;7.70;;;0.50;88.90;;;;;;5113449;28;20472;-35
2021/03/18 05:30:27;;;;;;;18.70;7.75;;;0.60;88.60;;;;;;5113715;28;20073;-35
2021/03/18 05:32:54;;;;;;;12.30;8.10;;;0.80;88.30;;;;;;5113485;28;20087;-35
2021/03/18 05:35:20;;;;;;;21.10;8.55;;;0.80;88.00;;;;;;5113494;28;20024;-37
2021/03/18 05:37:46;;;;;;;17.10;7.47;;;0.90;87.70;;;;;;5113418;28;20093;-37
2021/03/18 05:40:13;;;;;;;19.15;9.38;;;0.90;87.60;;;;;;5113727;28;20425;-36
2021/03/18 05:42:39;;;;;;;14.73;7.65;;;1.00;87.60;;;;;;5113301;28;20093;-36
2021/03/18 05:45:07;;;;;;;10.05;6.78;;;1.00;87.30;;;;;;5113400;28;20028;-35
2021/03/18 05:47:34;;;;;;;14.00;6.82;;;0.80;87.90;;;;;;5113109;28;20093;-35
2021/03/18 05:50:01;;;;;;;15.15;7.65;;;0.80;88.30;;;;;;5113161;28;20150;-37
2021/03/18 05:52:28;;;;;;;17.13;7.78;;;0.80;88.40;;;;;;5113085;28;20039;-35
2021/03/18 05:54:56;;;;;;;19.15;7.38;;;0.90;87.80;;;;;;5113306;28;20487;-36
2021/03/18 05:57:23;;;;;;;12.75;8.30;;;1.00;87.40;;;;;;5113316;28;20023;-36
2021/03/18 05:59:50;;;;;;;17.85;9.13;;;0.90;87.50;;;;;;5112725;28;20118;-36
2021/03/18 06:02:16;;;;;;;14.70;7.97;;;1.10;87.60;;;;;;5113428;28;20035;-36
2021/03/18 06:04:42;;;;;;;20.33;8.77;;;1.10;87.60;;;;;;5113240;28;20020;-36
2021/03/18 06:07:09;;;;;;;16.02;8.88;;;1.00;87.50;;;;;;5113446;28;20416;-36
2021/03/18 06:09:35;;;;;;;16.50;9.18;;;1.00;87.90;;;;;;5113264;28;20558;-36
2021/03/18 06:12:02;;;;;;;15.82;8.60;;;1.10;87.90;;;;;;5113348;28;20455;-36
2021/03/18 06:14:27;;;;;;;13.65;7.55;;;1.30;87.00;;;;;;5113284;28;20066;-36
2021/03/18 06:16:54;;;;;;;19.05;8.85;;;1.30;86.60;;;;;;5113307;28;20020;-36
2021/03/18 06:19:20;;;;;;;12.43;8.10;;;1.50;86.10;;;;;;5113158;28;20509;-36
2021/03/18 06:21:51;;;;;;;20.83;8.10;;;1.50;85.40;;;;;;5113118;28;20063;-36
2021/03/18 06:24:17;;;;;;;15.15;7.13;;;1.50;86.00;;;;;;5113390;28;20030;-36
2021/03/18 06:26:43;;;;;;;18.45;7.93;;;1.50;86.30;;;;;;5116207;28;20054;-35
2021/03/18 06:29:28;;;;;;;16.02;6.18;;;1.60;85.90;;;;;;5116294;28;20073;-35
2021/03/18 06:31:54;;;;;;;13.43;7.20;;;1.60;85.60;;;;;;5116433;28;20032;-36
2021/03/18 06:34:41;;;;;;;13.43;7.10;;;1.50;86.50;;;;;;5116353;28;20042;-36
2021/03/18 06:37:33;;;;;;;21.52;9.00;;;2.00;85.10;;;;;;5116282;28;20027;-35
2021/03/18 06:40:01;;;;;;;15.60;7.93;;;1.90;84.90;;;;;;5117375;27;20027;-36
2021/03/18 06:42:28;;;;;;;21.15;8.80;;;2.20;84.00;;;;;;5115571;28;20068;-36
2021/03/18 06:45:14;;;;;;;18.80;8.98;;;2.10;84.20;;;;;;5116690;28;20041;-36
2021/03/18 06:47:46;;;;;;;13.95;6.63;;;2.00;84.80;;;;;;5116403;28;20135;-36
2021/03/18 06:50:14;;;;;;;16.08;7.15;;;2.10;84.30;;;;;;5116341;28;20031;-36
2021/03/18 06:52:40;;;;;;;16.17;8.30;;;1.90;84.40;;;;;;5116599;28;20054;-35
2021/03/18 06:55:08;;;;;;;14.73;8.60;;;1.60;85.80;;;;;;5116128;28;20490;-36
2021/03/18 06:57:35;;;;;;;13.98;6.80;;;1.80;85.70;;;;;;5116924;28;20031;-35
2021/03/18 07:00:01;;;;;;;19.42;9.07;;;1.80;85.70;;;;;;5116493;28;20027;-37
2021/03/18 07:02:27;;;;;;;21.90;7.55;;;2.30;83.90;;;;;;5116697;28;20027;-36
2021/03/18 07:04:56;;;;;;;17.90;7.68;;;2.20;84.10;;;;;;5116147;28;20077;-37
2021/03/18 07:07:26;;;;;;;15.85;7.50;;;2.30;84.10;;;;;;5114811;28;20019;-37
2021/03/18 07:09:54;;;;;;;14.00;7.25;;;2.30;83.60;;;;;;5116161;28;20019;-36
2021/03/18 07:12:28;;;;;;;12.23;7.10;;;2.60;83.10;;;;;;5115796;28;20068;-37
2021/03/18 07:15:00;;;;;;;15.27;7.38;;;2.80;82.70;;;;;;5115256;28;20020;-37
2021/03/18 07:17:37;;;;;;;14.90;7.60;;;3.30;81.60;;;;;;5115748;28;20023;-36
2021/03/18 07:20:15;;;;;;;13.18;6.97;;;2.80;82.10;;;;;;5115896;28;20478;-35
2021/03/18 07:22:45;;;;;;;10.98;6.80;;;2.90;82.30;;;;;;5115649;28;20024;-36
2021/03/18 07:25:14;;;;;;;15.00;9.30;;;2.90;82.30;;;;;;5114726;28;20601;-36
2021/03/18 07:27:47;;;;;;;10.48;6.80;;;3.00;81.50;;;;;;5115532;28;20099;-43
2021/03/18 07:30:29;;;;;;;13.55;7.22;;;3.10;82.80;;;;;;5115524;27;20039;-36
2021/03/18 07:32:57;;;;;;;19.55;8.35;;;3.40;81.10;;;;;;5115448;28;20090;-35
2021/03/18 07:35:24;;;;;;;10.35;5.95;;;3.60;80.70;;;;;;5114975;27;20024;-38
2021/03/18 07:37:50;;;;;;;17.77;6.70;;;3.60;80.10;;;;;;5115440;28;20031;-39
2021/03/18 07:40:16;;;;;;;24.23;8.40;;;3.50;80.70;;;;;;5115485;28;20020;-36
2021/03/18 07:42:42;;;;;;;20.27;7.68;;;4.00;79.80;;;;;;5115598;28;20038;-36
2021/03/18 07:45:10;;;;;;;24.48;8.50;;;4.30;78.40;;;;;;5115147;28;20034;-36
2021/03/18 07:47:37;;;;;;;33.78;10.20;;;4.20;78.60;;;;;;5115372;28;20048;-36
2021/03/18 07:50:09;;;;;;;27.58;8.80;;;4.30;79.00;;;;;;5115005;28;20057;-36
2021/03/18 07:52:38;;;;;;;30.35;9.20;;;3.50;81.30;;;;;;5097059;28;20027;-35
2021/03/18 07:55:05;;;;;;;24.77;9.55;;;3.30;82.60;;;;;;5115621;28;20024;-36
2021/03/18 07:57:50;;;;;;;18.58;10.32;;;3.80;81.20;;;;;;5115561;28;20016;-45
2021/03/18 08:00:24;;;;;;;26.05;9.82;;;3.60;82.00;;;;;;5120119;28;20037;-36
2021/03/18 08:02:50;;;;;;;28.05;9.73;;;3.70;82.20;;;;;;5115623;28;20020;-35
2021/03/18 08:05:39;;;;;;;24.70;9.80;;;3.80;82.00;;;;;;5116001;28;20383;-36
2021/03/18 08:08:06;;;;;;;26.00;10.07;;;4.10;81.40;;;;;;5114933;28;20023;-37
2021/03/18 08:10:31;;;;;;;37.75;12.38;;;4.00;80.60;;;;;;5114519;28;20035;-35
2021/03/18 08:13:04;;;;;;;28.67;10.20;;;3.60;82.50;;;;;;5114937;28;20098;-36
2021/03/18 08:15:38;;;;;;;29.73;10.20;;;3.80;81.80;;;;;;5116457;28;20023;-39
2021/03/18 08:18:13;;;;;;;27.25;9.30;;;3.80;81.30;;;;;;5115705;28;20027;-37
2021/03/18 08:20:42;;;;;;;27.05;10.23;;;4.00;80.50;;;;;;5114331;28;20048;-37
2021/03/18 08:23:23;;;;;;;29.55;12.38;;;4.20;80.40;;;;;;5114247;28;20030;-36
2021/03/18 08:25:50;;;;;;;24.58;10.35;;;4.30;79.40;;;;;;5114565;28;20072;-36
2021/03/18 08:28:35;;;;;;;33.08;10.15;;;4.30;79.80;;;;;;5113320;28;20046;-37
2021/03/18 08:31:01;;;;;;;33.33;12.10;;;4.40;80.00;;;;;;5114307;28;20024;-37
2021/03/18 08:33:48;;;;;;;22.25;9.30;;;4.80;78.50;;;;;;5114586;28;20030;-37
2021/03/18 08:36:24;;;;;;;22.30;9.18;;;4.30;80.60;;;;;;5114313;28;20024;-36
2021/03/18 08:38:54;;;;;;;19.58;7.50;;;4.70;78.90;;;;;;5115485;28;20476;-37
2021/03/18 08:41:26;;;;;;;16.77;7.97;;;4.80;78.70;;;;;;5115892;28;20023;-36
2021/03/18 08:44:16;;;;;;;16.92;7.55;;;4.60;79.30;;;;;;5114013;28;20094;-36
2021/03/18 08:46:56;;;;;;;27.43;10.43;;;4.60;79.10;;;;;;5113424;28;20028;-36
2021/03/18 08:49:32;;;;;;;17.88;8.40;;;4.80;78.90;;;;;;5114330;28;20289;-36
2021/03/18 08:52:06;;;;;;;16.38;7.60;;;4.80;78.50;;;;;;5114740;28;20486;-36
2021/03/18 08:54:41;;;;;;;16.42;8.93;;;4.80;78.40;;;;;;5115332;28;20019;-36
2021/03/18 08:57:25;;;;;;;23.20;8.38;;;4.90;78.20;;;;;;5113897;28;20026;-36
2021/03/18 08:59:54;;;;;;;18.73;7.70;;;5.30;76.40;;;;;;5114057;28;20478;-36
2021/03/18 09:02:31;;;;;;;16.30;6.45;;;5.00;77.00;;;;;;5113986;28;20020;-37
2021/03/18 09:04:58;;;;;;;18.55;7.82;;;5.20;77.20;;;;;;5113788;28;20077;-37
2021/03/18 09:07:27;;;;;;;15.48;7.40;;;5.10;77.70;;;;;;5113737;28;20023;-37
2021/03/18 09:10:08;;;;;;;20.92;8.80;;;5.20;77.00;;;;;;5113648;28;20073;-39
2021/03/18 09:12:39;;;;;;;15.43;6.15;;;4.90;77.60;;;;;;5113736;28;20028;-37
2021/03/18 09:15:24;;;;;;;;;;;4.40;79.70;;;;;;5114036;28;20020;-40
2021/03/18 09:17:54;;;;;;;16.17;7.30;;;4.50;78.70;;;;;;5113822;28;19911;-37
2021/03/18 09:20:25;;;;;;;11.48;6.50;;;4.40;80.10;;;;;;5112552;28;20034;-37
2021/03/18 09:22:52;;;;;;;18.83;7.40;;;4.90;78.70;;;;;;5113328;28;20109;-36
2021/03/18 09:25:23;;;;;;;13.32;7.55;;;5.10;77.30;;;;;;5113444;28;20027;-36
2021/03/18 09:27:48;;;;;;;20.63;7.05;;;5.10;77.30;;;;;;5112096;28;20443;-36
2021/03/18 09:30:20;;;;;;;13.50;7.55;;;4.80;78.30;;;;;;5113185;28;20064;-36
2021/03/18 09:32:47;;;;;;;17.10;6.75;;;4.90;77.90;;;;;;5113193;28;20016;-36
2021/03/18 09:35:14;;;;;;;13.90;7.15;;;5.20;77.70;;;;;;5113389;28;20024;-36
2021/03/18 09:37:43;;;;;;;14.63;6.35;;;5.20;77.00;;;;;;5113375;28;20056;-37
2021/03/18 09:40:09;;;;;;;13.75;7.18;;;4.80;78.20;;;;;;5114037;28;20035;-37
2021/03/18 09:42:37;;;;;;;15.85;7.45;;;5.20;76.80;;;;;;5113364;28;20019;-37
2021/03/18 09:45:04;;;;;;;20.83;7.60;;;5.30;76.80;;;;;;5113679;28;20023;-37
2021/03/18 09:47:30;;;;;;;20.35;7.68;;;5.40;76.50;;;;;;5112867;28;20044;-37
2021/03/18 09:49:55;;;;;;;14.30;6.85;;;5.30;76.70;;;;;;5113263;28;20081;-37
2021/03/18 09:52:25;;;;;;;16.60;7.68;;;5.40;76.70;;;;;;5112805;28;20030;-37
2021/03/18 09:54:51;;;;;;;17.13;7.28;;;5.80;75.10;;;;;;5113044;28;20024;-37
2021/03/18 09:57:17;;;;;;;17.92;7.47;;;5.70;75.10;;;;;;5113266;28;20077;-37
2021/03/18 09:59:49;;;;;;;17.75;7.22;;;5.80;74.50;;;;;;5115690;28;20498;-37
2021/03/18 10:02:17;;;;;;;10.43;6.15;;;5.80;74.90;;;;;;5117138;28;20020;-36
2021/03/18 10:04:44;;;;;;;10.82;5.65;;;6.40;72.40;;;;;;5117310;28;20095;-36
2021/03/18 10:07:11;;;;;;;14.43;6.50;;;6.50;71.80;;;;;;5115911;28;20031;-35
2021/03/18 10:09:41;;;;;;;12.88;7.90;;;6.30;72.00;;;;;;5116900;27;20031;-36
2021/03/18 10:12:16;;;;;;;15.60;6.88;;;6.10;72.90;;;;;;5116801;28;20019;-36
2021/03/18 10:14:51;;;;;;;15.43;6.80;;;5.80;73.70;;;;;;5117148;28;20490;-37
2021/03/18 10:17:35;;;;;;;10.48;6.10;;;5.80;73.80;;;;;;5116593;28;20031;-36
2021/03/18 10:20:35;;;;;;;15.50;7.13;;;6.20;71.70;;;;;;5117139;28;20072;-37
2021/03/18 10:23:04;;;;;;;18.23;6.53;;;6.10;71.90;;;;;;5109050;28;20399;-37
2021/03/18 10:25:32;;;;;;;15.27;7.35;;;5.90;72.10;;;;;;5116409;28;20027;-40
2021/03/18 10:28:13;;;;;;;15.18;6.55;;;6.00;72.40;;;;;;5116737;28;20031;-37
2021/03/18 10:30:41;;;;;;;20.75;8.88;;;6.10;72.10;;;;;;5116472;28;20111;-36
2021/03/18 10:33:08;;;;;;;13.02;7.10;;;5.70;72.90;;;;;;5116958;28;20028;-37
2021/03/18 10:35:40;;;;;;;17.20;6.80;;;5.80;73.00;;;;;;5116723;28;20024;-38
2021/03/18 10:38:10;;;;;;;13.70;5.68;;;6.50;70.60;;;;;;5116622;28;20027;-37
2021/03/18 10:40:45;;;;;;;9.70;6.93;;;6.80;69.50;;;;;;5116162;28;20140;-37
2021/03/18 10:43:21;;;;;;;14.13;6.55;;;7.30;68.20;;;;;;5114600;28;20076;-37
2021/03/18 10:45:48;;;;;;;19.17;6.72;;;6.70;69.00;;;;;;5116587;28;20030;-36
2021/03/18 10:48:24;;;;;;;13.63;7.60;;;6.90;68.20;;;;;;5116271;28;20172;-36
2021/03/18 10:50:52;;;;;;;13.52;6.28;;;6.70;69.70;;;;;;5116475;28;20024;-36
2021/03/18 10:53:20;;;;;;;11.15;7.15;;;6.80;68.40;;;;;;5115970;28;20020;-36
2021/03/18 10:55:52;;;;;;;12.52;5.75;;;7.20;67.60;;;;;;5116132;28;20012;-36
2021/03/18 10:58:20;;;;;;;9.15;5.95;;;7.20;66.10;;;;;;5115972;28;20019;-36
2021/03/18 11:00:47;;;;;;;10.80;6.25;;;7.40;64.90;;;;;;5116449;28;20027;-37
2021/03/18 11:03:15;;;;;;;8.23;5.05;;;7.20;65.60;;;;;;5116216;28;20019;-37
2021/03/18 11:05:50;;;;;;;9.68;5.10;;;6.80;66.30;;;;;;5114774;28;20050;-37
2021/03/18 11:08:25;;;;;;;14.30;6.68;;;7.20;65.00;;;;;;5114473;28;20028;-36
2021/03/18 11:10:51;;;;;;;9.85;4.68;;;6.90;66.50;;;;;;5115229;28;20027;-36
2021/03/18 11:13:20;;;;;;;10.10;5.38;;;6.60;67.70;;;;;;5115904;28;20035;-39
2021/03/18 11:16:00;;;;;;;9.70;6.03;;;7.20;65.40;;;;;;5115590;28;20011;-37
2021/03/18 11:18:35;;;;;;;11.05;5.95;;;7.30;64.10;;;;;;5115717;28;20104;-36
2021/03/18 11:21:04;;;;;;;7.90;5.28;;;7.80;63.80;;;;;;5115941;28;20040;-36
2021/03/18 11:23:34;;;;;;;14.10;5.28;;;7.50;64.20;;;;;;5115157;28;20499;-37
2021/03/18 11:26:02;;;;;;;9.82;5.10;;;6.80;66.90;;;;;;5115349;28;20020;-37
2021/03/18 11:28:28;;;;;;;13.15;4.80;;;6.60;66.90;;;;;;5115438;28;20059;-37
2021/03/18 11:30:56;;;;;;;14.77;7.95;;;6.20;68.70;;;;;;5115398;28;20023;-37
2021/03/18 11:33:33;;;;;;;12.40;6.05;;;6.50;69.40;;;;;;5114146;28;20019;-37
2021/03/18 11:36:03;;;;;;;7.43;4.90;;;6.50;68.70;;;;;;5115599;28;20019;-37
2021/03/18 11:38:29;;;;;;;9.10;5.25;;;6.30;70.00;;;;;;5115463;28;20024;-36
2021/03/18 11:40:58;;;;;;;7.25;4.38;;;6.00;70.20;;;;;;5115965;28;20080;-36
2021/03/18 11:43:25;;;;;;;7.13;3.33;;;6.10;70.20;;;;;;5115186;28;20023;-36
2021/03/18 11:45:51;;;;;;;12.23;4.82;;;6.30;68.30;;;;;;5115246;28;20035;-35
2021/03/18 11:48:17;;;;;;;9.25;5.38;;;6.80;68.20;;;;;;5114880;28;20075;-36
2021/03/18 11:50:43;;;;;;;6.88;4.35;;;7.00;68.40;;;;;;5115122;28;20104;-43
2021/03/18 11:53:09;;;;;;;14.02;4.38;;;7.20;66.20;;;;;;5115387;28;20161;-37
2021/03/18 11:55:36;;;;;;;8.18;3.70;;;7.30;65.30;;;;;;5115152;28;20494;-36
2021/03/18 11:58:04;;;;;;;5.55;2.92;;;6.60;65.70;;;;;;5115130;27;20020;-37
2021/03/18 12:00:32;;;;;;;7.88;4.53;;;6.20;67.20;;;;;;5113992;28;20463;-36
2021/03/18 12:02:59;;;;;;;13.02;4.30;;;6.30;68.90;;;;;;5115004;28;20020;-44
2021/03/18 12:05:25;;;;;;;13.20;5.30;;;6.20;69.00;;;;;;5115348;28;20039;-38
2021/03/18 12:07:51;;;;;;;8.52;3.83;;;6.10;69.50;;;;;;5114830;28;20471;-37
2021/03/18 12:10:17;;;;;;;4.80;4.00;;;5.80;69.30;;;;;;5114767;28;20023;-36
2021/03/18 12:12:44;;;;;;;12.10;5.03;;;5.70;69.80;;;;;;5114579;28;20348;-36
2021/03/18 12:15:11;;;;;;;6.65;3.13;;;5.60;70.00;;;;;;5114655;28;20020;-35
2021/03/18 12:17:38;;;;;;;8.40;3.95;;;5.80;69.70;;;;;;5114552;28;20055;-36
2021/03/18 12:20:07;;;;;;;6.88;3.60;;;5.80;70.00;;;;;;5114452;28;20031;-37
2021/03/18 12:22:33;;;;;;;5.60;3.35;;;5.90;70.30;;;;;;5114705;28;20058;-36
2021/03/18 12:24:59;;;;;;;6.22;2.95;;;6.00;70.10;;;;;;5114799;28;20467;-36
2021/03/18 12:27:24;;;;;;;8.10;3.72;;;6.20;69.70;;;;;;5114184;28;20020;-36
2021/03/18 12:29:50;;;;;;;7.15;3.88;;;6.20;70.00;;;;;;5113020;28;20472;-39
2021/03/18 12:32:16;;;;;;;12.05;5.88;;;6.00;70.40;;;;;;5114619;28;20380;-36
2021/03/18 12:34:41;;;;;;;7.15;4.78;;;6.30;70.10;;;;;;5114072;28;20031;-37
2021/03/18 12:37:07;;;;;;;8.00;4.65;;;5.90;71.10;;;;;;5114419;28;20023;-36
2021/03/18 12:39:33;;;;;;;7.63;5.35;;;6.10;71.70;;;;;;5114277;28;20498;-36
2021/03/18 12:41:58;;;;;;;8.80;4.70;;;6.20;71.40;;;;;;5114152;28;20107;-36
2021/03/18 12:44:25;;;;;;;13.60;6.20;;;6.20;71.10;;;;;;5113909;28;20111;-37
2021/03/18 12:46:51;;;;;;;13.10;6.22;;;6.30;71.40;;;;;;5113942;28;20088;-37
2021/03/18 12:49:16;;;;;;;13.80;6.60;;;6.20;72.10;;;;;;5113971;28;20429;-37
2021/03/18 12:51:42;;;;;;;13.88;6.82;;;5.70;74.30;;;;;;5113910;28;20047;-39
2021/03/18 12:54:09;;;;;;;16.70;8.82;;;5.80;74.00;;;;;;5114372;28;20031;-38
2021/03/18 12:56:35;;;;;;;13.18;8.88;;;6.00;73.30;;;;;;5114086;28;20027;-38
2021/03/18 12:59:01;;;;;;;14.45;9.93;;;5.70;74.30;;;;;;5113789;28;20073;-36
2021/03/18 13:01:26;;;;;;;16.80;11.90;;;5.50;75.40;;;;;;5113893;28;20024;-36